Terminal Aerodrome Forecast
Issued by NWS Springfield, MO

Home | Current Version | Previous Version | Text Only | Print | Product List | Glossary On
Versions: 1 2 3 4 5 6 7 8 9 10 11 12 13 14 15 16 17 18 19 20 21
406
FTUS43 KSGF 251151 CCB
TAFSGF
TAF COR
KSGF 251151Z 2512/2612 VRB03KT P6SM BKN120
     FM260600 04004KT P6SM VCSH SCT060 OVC100 PROB30 2606/2612 -TSRA
      BKN060CB OVC100=

USA.gov is the U.S. government's official web portal to all federal, state and local government web resources and services.